Norfolk, NE (68701)

1:51 AM CST on February 12, 2016 (GMT -0600)
North Norfolk | | Change Station
CLOSE
Current Station
Personal Weather Station
Location: Norfolk, NE
Elevation: 1614 ft
Nearby Weather Stations

Elev 1614 ft 42.05 °N, 97.44 °W | Updated 19 seconds ago

Overcast
Overcast
25.5 °F
Feels Like 15 °F
N
12.1
Wind Variable Wind from NW
Gusts 12.3 mph

Today
High -- | Low -- °F
--% Chance of Precip.
Yesterday
High -- | Low -- °F
Precip. -- in
Pressure 30.29 in
Visibility 6.0 miles
Clouds Few 900 ft
Overcast 1300 ft
Windchill 15 °F
Dew Point 23 °F
Humidity 90%
Rainfall 0.00 in
Snow Depth Not available.
7:30 AM 5:58 PM
Waxing Crescent, 18% visible
METAR KOFK 120656Z AUTO 33008KT 6SM BR FEW009 OVC013 M03/M05 A3022 RMK AO2 SLP257 T10281050
Pressure 30.29 in
Visibility 6.0 miles
Clouds Few 900 ft
Overcast 1300 ft
Windchill 15 °F
Dew Point 23 °F
Humidity 90%
Rainfall 0.00 in
Snow Depth Not available.
7:30 AM 5:58 PM
Waxing Crescent, 18% visible
METAR KOFK 120656Z AUTO 33008KT 6SM BR FEW009 OVC013 M03/M05 A3022 RMK AO2 SLP257 T10281050

10-Day Weather Forecast

Almanac

Astronomy

Feb. 12, 2016 Rise Set
Actual Time
Civil Twilight
Nautical Twilight
Astronomical Twilight
Moon
Length of Visible Light
Length of Day
Tomorrow will be .
, % of the Moon is Illuminated

Today's Extremes

State Highs State Lows

Community

WunderPhotos

Upload Photos

1,892,278 photos uploaded!

WunderBlog® & News

Nearby

Air Quality

  Air Quality AQ Index Pollutant
Not available.

Snow Depth

Station Depth Elevation

Earthquake Activity

City Distance Mag. Time & Date
Minimum magnitude displayed is 2.5.

Coastal Water Temperatures

Place Temperature

Stations

Nearby Weather Stations

Station Location Temp. Windchill Dew Point Humidity Wind Precip. Elev Updated Type
                   

Watches & Warnings

There are currently no watches in effect.